Time;durP1;ratioP1;P1;durP2;ratioP2;P2;SDS_P1;SDS_P2;PMS_P1;PMS_P2;Temp;Humidity;BMP_temperature;BMP_pressure;BME280_temperature;BME280_humidity;BME280_pressure;Samples;Min_cycle;Max_cycle;Signal;HPM_P1;HPM_P2
2021/03/07 06:16:13;;;;;;;4.65;2.65;;;;;;;;;;5131063;27;20383;-63
2021/03/07 06:18:59;;;;;;;6.53;3.33;;;;;;;;;;5130122;27;20040;-63
2021/03/07 06:21:44;;;;;;;4.18;1.70;;;;;;;;;;5129222;28;20043;-63
2021/03/07 06:24:36;;;;;;;3.05;1.65;;;;;;;;;;5130356;27;20497;-62
2021/03/07 06:27:21;;;;;;;3.58;1.95;;;;;;;;;;5129167;28;20057;-62
2021/03/07 06:30:10;;;;;;;3.88;2.05;;;;;;;;;;5130349;27;20043;-66
2021/03/07 06:32:56;;;;;;;3.53;1.50;;;;;;;;;;5131805;27;20047;-66
2021/03/07 06:35:41;;;;;;;2.88;1.50;;;;;;;;;;5130495;27;20039;-62
2021/03/07 06:38:26;;;;;;;3.40;2.35;;;;;;;;;;5129744;27;20519;-64
2021/03/07 06:41:15;;;;;;;3.55;2.17;;;;;;;;;;5128937;28;20035;-63
2021/03/07 06:44:07;;;;;;;2.35;1.80;;;;;;;;;;5109319;28;20402;-63
2021/03/07 06:46:52;;;;;;;4.20;1.88;;;;;;;;;;5109446;28;20048;-63
2021/03/07 06:49:37;;;;;;;3.20;2.10;;;;;;;;;;5107964;27;20067;-63
2021/03/07 06:52:23;;;;;;;6.68;2.00;;;;;;;;;;5133836;27;20043;-64
2021/03/07 06:55:12;;;;;;;3.15;1.75;;;;;;;;;;5136605;27;20047;-64
2021/03/07 06:57:57;;;;;;;3.50;2.00;;;;;;;;;;5138449;27;20485;-64
2021/03/07 07:00:42;;;;;;;2.20;1.45;;;;;;;;;;5140163;27;20043;-64
2021/03/07 07:03:31;;;;;;;1.73;1.40;;;;;;;;;;5118990;28;20043;-64
2021/03/07 07:06:16;;;;;;;4.57;1.73;;;;;;;;;;5129514;27;20412;-64
2021/03/07 07:09:02;;;;;;;2.67;1.60;;;;;;;;;;5121381;27;20067;-63
2021/03/07 07:11:47;;;;;;;4.22;2.13;;;;;;;;;;5107541;28;20039;-64
2021/03/07 07:14:34;;;;;;;2.08;1.48;;;;;;;;;;5116762;28;20040;-64
2021/03/07 07:17:20;;;;;;;2.35;2.15;;;;;;;;;;5116233;28;20051;-63
2021/03/07 07:20:06;;;;;;;2.13;1.60;;;;;;;;;;5129467;27;20409;-63
2021/03/07 07:22:52;;;;;;;5.93;1.60;;;;;;;;;;5113855;28;20500;-63
2021/03/07 07:25:37;;;;;;;1.88;1.48;;;;;;;;;;5125698;28;20074;-63
2021/03/07 07:28:23;;;;;;;3.55;1.48;;;;;;;;;;5114079;28;20044;-63
2021/03/07 07:31:17;;;;;;;3.60;1.70;;;;;;;;;;5094562;28;20074;-64
2021/03/07 07:34:12;;;;;;;1.77;1.38;;;;;;;;;;5106706;28;20114;-64
2021/03/07 07:37:46;;;;;;;2.67;1.55;;;;;;;;;;5120720;27;20209;-63
2021/03/07 07:40:42;;;;;;;1.77;1.52;;;;;;;;;;5117662;28;20044;-64
2021/03/07 07:43:27;;;;;;;2.55;1.35;;;;;;;;;;5116255;28;20035;-63
2021/03/07 07:46:12;;;;;;;3.63;1.90;;;;;;;;;;5130115;27;20039;-64
2021/03/07 07:48:59;;;;;;;2.97;1.70;;;;;;;;;;5130075;27;20043;-64
2021/03/07 07:51:45;;;;;;;5.05;1.85;;;;;;;;;;5129294;28;20043;-64
2021/03/07 07:54:48;;;;;;;7.68;2.15;;;;;;;;;;5115128;27;20044;-65
2021/03/07 07:57:35;;;;;;;4.47;1.88;;;;;;;;;;5109419;28;20123;-65
2021/03/07 08:00:23;;;;;;;3.63;2.25;;;;;;;;;;5110864;28;20128;-65
2021/03/07 08:03:09;;;;;;;2.42;1.70;;;;;;;;;;5109415;28;20044;-65
2021/03/07 08:05:54;;;;;;;3.33;2.00;;;;;;;;;;5109568;28;20048;-65
2021/03/07 08:08:40;;;;;;;3.47;2.28;;;;;;;;;;5109006;28;20501;-65
2021/03/07 08:11:25;;;;;;;5.22;2.63;;;;;;;;;;5119523;28;20110;-64
2021/03/07 08:14:11;;;;;;;5.18;2.38;;;;;;;;;;5128827;28;20039;-64
2021/03/07 08:16:56;;;;;;;3.25;2.15;;;;;;;;;;5128047;27;20457;-64
2021/03/07 08:19:44;;;;;;;2.92;2.30;;;;;;;;;;5128371;28;20060;-65
2021/03/07 08:22:29;;;;;;;3.63;2.13;;;;;;;;;;5129642;27;20043;-64
2021/03/07 08:25:14;;;;;;;5.70;2.50;;;;;;;;;;5128614;28;20039;-64
2021/03/07 08:28:00;;;;;;;4.85;2.42;;;;;;;;;;5128197;28;20051;-65
2021/03/07 08:30:45;;;;;;;3.28;2.78;;;;;;;;;;5127827;27;20521;-65
2021/03/07 08:33:30;;;;;;;3.60;2.10;;;;;;;;;;5129498;27;20075;-65
2021/03/07 08:36:18;;;;;;;5.35;2.40;;;;;;;;;;5129179;27;20039;-65
2021/03/07 08:39:03;;;;;;;4.05;2.83;;;;;;;;;;5129214;27;20051;-65
2021/03/07 08:41:49;;;;;;;4.35;2.30;;;;;;;;;;5115143;27;20044;-65
2021/03/07 08:44:34;;;;;;;5.07;2.75;;;;;;;;;;5108766;28;20047;-65
2021/03/07 08:47:20;;;;;;;3.08;2.70;;;;;;;;;;5105069;28;20131;-64
2021/03/07 08:50:06;;;;;;;3.75;2.85;;;;;;;;;;5094118;28;20414;-65
2021/03/07 08:52:51;;;;;;;3.80;2.33;;;;;;;;;;5114404;28;20097;-65
2021/03/07 08:55:43;;;;;;;4.15;2.65;;;;;;;;;;5115296;28;20070;-66
2021/03/07 08:58:28;;;;;;;4.55;3.00;;;;;;;;;;5115018;28;20044;-65
2021/03/07 09:01:14;;;;;;;5.72;2.97;;;;;;;;;;5112033;28;20637;-64
2021/03/07 09:04:00;;;;;;;6.85;3.08;;;;;;;;;;5094892;28;20111;-65
2021/03/07 09:06:46;;;;;;;3.85;3.22;;;;;;;;;;5093824;28;20569;-66
2021/03/07 09:09:31;;;;;;;4.15;3.45;;;;;;;;;;5094478;28;20052;-66
2021/03/07 09:12:17;;;;;;;5.45;3.80;;;;;;;;;;5102379;28;20400;-65
2021/03/07 09:15:08;;;;;;;4.28;3.53;;;;;;;;;;5115046;28;20059;-63
2021/03/07 09:17:53;;;;;;;6.32;3.92;;;;;;;;;;5114490;28;20481;-65
2021/03/07 09:20:40;;;;;;;6.30;4.47;;;;;;;;;;5115009;28;20044;-65
2021/03/07 09:23:26;;;;;;;9.73;4.57;;;;;;;;;;5100078;28;20044;-66
2021/03/07 09:26:29;;;;;;;6.93;4.20;;;;;;;;;;5094434;28;20044;-65
2021/03/07 09:29:14;;;;;;;;;;;;;;;;;;5094583;28;20094;-65
2021/03/07 09:31:59;;;;;;;6.43;4.30;;;;;;;;;;5094133;28;19963;-65
2021/03/07 09:34:44;;;;;;;7.20;4.18;;;;;;;;;;5094110;28;20055;-65
2021/03/07 09:37:30;;;;;;;6.20;4.00;;;;;;;;;;5093822;28;20044;-65
2021/03/07 09:40:15;;;;;;;8.73;5.18;;;;;;;;;;5094095;28;20044;-65
2021/03/07 09:43:02;;;;;;;5.25;4.60;;;;;;;;;;5097980;28;20451;-64
2021/03/07 09:45:47;;;;;;;5.43;3.95;;;;;;;;;;5112617;28;20501;-65
2021/03/07 09:48:34;;;;;;;7.72;4.60;;;;;;;;;;5113969;28;20044;-65
2021/03/07 09:51:19;;;;;;;5.25;4.10;;;;;;;;;;5112485;28;20052;-65
2021/03/07 09:54:05;;;;;;;7.25;6.03;;;;;;;;;;5114173;28;20044;-64
2021/03/07 09:56:52;;;;;;;6.20;5.07;;;;;;;;;;5114153;28;20493;-63
2021/03/07 09:59:37;;;;;;;5.90;4.50;;;;;;;;;;5112776;28;20047;-64
2021/03/07 10:02:23;;;;;;;7.28;4.93;;;;;;;;;;5095303;28;20495;-64
2021/03/07 10:05:12;;;;;;;8.20;4.80;;;;;;;;;;5093715;28;20061;-63
2021/03/07 10:07:57;;;;;;;8.52;5.93;;;;;;;;;;5093168;28;20052;-65
2021/03/07 10:10:42;;;;;;;6.85;4.65;;;;;;;;;;5094675;28;20044;-66
2021/03/07 10:13:28;;;;;;;7.18;5.25;;;;;;;;;;5113920;28;20043;-65
2021/03/07 10:16:23;;;;;;;6.75;4.82;;;;;;;;;;5112697;28;20126;-65
2021/03/07 10:19:12;;;;;;;7.75;4.18;;;;;;;;;;5113529;28;20044;-66
2021/03/07 10:21:57;;;;;;;6.50;4.80;;;;;;;;;;5112057;28;20414;-65
2021/03/07 10:24:42;;;;;;;6.38;4.28;;;;;;;;;;5113504;28;20048;-66
2021/03/07 10:27:31;;;;;;;7.90;5.25;;;;;;;;;;5113598;28;20048;-66
2021/03/07 10:30:27;;;;;;;6.63;5.10;;;;;;;;;;5113550;28;20040;-65
2021/03/07 10:33:14;;;;;;;8.75;5.00;;;;;;;;;;5096450;28;20447;-66
2021/03/07 10:36:02;;;;;;;8.85;5.13;;;;;;;;;;5092873;28;20040;-64
2021/03/07 10:38:51;;;;;;;6.68;5.18;;;;;;;;;;5092564;28;20086;-65
2021/03/07 10:41:36;;;;;;;6.82;5.57;;;;;;;;;;5092752;28;20040;-63
2021/03/07 10:44:25;;;;;;;7.50;5.95;;;;;;;;;;5113176;28;20040;-64
2021/03/07 10:47:22;;;;;;;7.55;6.22;;;;;;;;;;5111356;28;20047;-65
2021/03/07 10:50:07;;;;;;;8.82;6.45;;;;;;;;;;5113134;28;20114;-66
2021/03/07 10:52:53;;;;;;;9.25;6.35;;;;;;;;;;5105611;28;20044;-66
2021/03/07 10:55:38;;;;;;;7.90;6.07;;;;;;;;;;5092704;28;20094;-65
2021/03/07 10:58:23;;;;;;;9.20;6.85;;;;;;;;;;5092414;28;20114;-66
2021/03/07 11:01:14;;;;;;;11.13;7.40;;;;;;;;;;5092577;28;20568;-65
2021/03/07 11:03:59;;;;;;;9.60;6.78;;;;;;;;;;5105906;28;20039;-65
2021/03/07 11:06:44;;;;;;;8.48;6.93;;;;;;;;;;5112925;28;20389;-64
2021/03/07 11:09:30;;;;;;;8.88;7.00;;;;;;;;;;5112712;28;20079;-65
2021/03/07 11:12:15;;;;;;;9.32;7.00;;;;;;;;;;5112604;28;20089;-65
2021/03/07 11:15:00;;;;;;;10.20;7.10;;;;;;;;;;5093113;28;20040;-65
2021/03/07 11:17:46;;;;;;;9.70;6.97;;;;;;;;;;5091990;28;20088;-65
2021/03/07 11:20:31;;;;;;;9.35;7.78;;;;;;;;;;5092322;28;20040;-65
2021/03/07 11:23:17;;;;;;;10.98;8.57;;;;;;;;;;5093847;28;20394;-64
2021/03/07 11:26:03;;;;;;;9.77;7.80;;;;;;;;;;5111690;28;20043;-64
2021/03/07 11:28:48;;;;;;;11.85;7.65;;;;;;;;;;5112041;28;20044;-64
2021/03/07 11:31:34;;;;;;;9.93;8.07;;;;;;;;;;5111557;28;20062;-63
2021/03/07 11:34:19;;;;;;;10.93;7.80;;;;;;;;;;5091293;28;20052;-64
2021/03/07 11:37:04;;;;;;;12.80;8.85;;;;;;;;;;5091936;28;20056;-64
2021/03/07 11:39:49;;;;;;;10.65;8.63;;;;;;;;;;5091784;28;20044;-64
2021/03/07 11:42:35;;;;;;;9.98;7.82;;;;;;;;;;5098136;28;20063;-65
2021/03/07 11:45:21;;;;;;;10.68;8.07;;;;;;;;;;5112124;28;20096;-65
2021/03/07 11:48:06;;;;;;;12.43;8.25;;;;;;;;;;5111958;28;20130;-65
2021/03/07 11:50:51;;;;;;;10.95;7.57;;;;;;;;;;5112541;28;20048;-65
2021/03/07 11:53:36;;;;;;;10.65;8.30;;;;;;;;;;5100121;28;20105;-64
2021/03/07 11:56:22;;;;;;;10.88;8.18;;;;;;;;;;5091818;28;20040;-65
2021/03/07 11:59:07;;;;;;;9.80;8.27;;;;;;;;;;5091477;28;20419;-64
2021/03/07 12:01:52;;;;;;;12.18;8.63;;;;;;;;;;5092035;28;20044;-64
2021/03/07 12:04:38;;;;;;;10.07;8.32;;;;;;;;;;5109357;28;20051;-65
2021/03/07 12:07:23;;;;;;;11.77;9.10;;;;;;;;;;5112315;28;20047;-64
2021/03/07 12:10:09;;;;;;;9.77;8.43;;;;;;;;;;5112271;28;20044;-64
2021/03/07 12:12:54;;;;;;;10.38;7.70;;;;;;;;;;5111718;28;20130;-64
2021/03/07 12:15:39;;;;;;;11.15;7.88;;;;;;;;;;5108617;22;20061;-64
2021/03/07 12:18:24;;;;;;;10.95;8.38;;;;;;;;;;5051218;28;20045;-64
2021/03/07 12:21:10;;;;;;;12.00;7.78;;;;;;;;;;5051478;28;20049;-64
2021/03/07 12:23:55;;;;;;;11.63;7.72;;;;;;;;;;5053621;28;20041;-64
2021/03/07 12:26:40;;;;;;;10.45;7.78;;;;;;;;;;5035209;28;20124;-64
2021/03/07 12:29:26;;;;;;;9.73;8.18;;;;;;;;;;5034906;28;20120;-65
2021/03/07 12:32:11;;;;;;;9.50;8.23;;;;;;;;;;5035356;28;20049;-64
2021/03/07 12:34:56;;;;;;;10.38;8.30;;;;;;;;;;5033385;28;20491;-64
2021/03/07 12:37:42;;;;;;;12.82;9.00;;;;;;;;;;5034803;28;20088;-64
2021/03/07 12:40:27;;;;;;;14.35;10.23;;;;;;;;;;5015591;28;20042;-64
2021/03/07 12:43:12;;;;;;;14.23;9.32;;;;;;;;;;5015247;28;20053;-64
2021/03/07 12:45:58;;;;;;;11.02;8.95;;;;;;;;;;5016104;28;20046;-65
2021/03/07 12:48:43;;;;;;;10.57;9.48;;;;;;;;;;5014766;28;20057;-65
2021/03/07 12:51:29;;;;;;;12.75;11.20;;;;;;;;;;5015132;28;20077;-65
2021/03/07 12:54:14;;;;;;;15.23;10.15;;;;;;;;;;5025867;28;20435;-65
2021/03/07 12:56:59;;;;;;;14.43;10.15;;;;;;;;;;5034623;28;20045;-65
2021/03/07 12:59:45;;;;;;;13.25;10.40;;;;;;;;;;5034540;28;20041;-65
2021/03/07 13:02:30;;;;;;;15.32;11.15;;;;;;;;;;5034600;28;20045;-65
2021/03/07 13:05:15;;;;;;;15.52;11.95;;;;;;;;;;5017347;28;20045;-65
2021/03/07 13:08:01;;;;;;;14.38;10.55;;;;;;;;;;5014518;28;20050;-65
2021/03/07 13:10:46;;;;;;;15.32;11.32;;;;;;;;;;5014698;28;20054;-65
2021/03/07 13:13:31;;;;;;;15.88;11.50;;;;;;;;;;5030110;28;20050;-65
2021/03/07 13:16:16;;;;;;;15.00;11.40;;;;;;;;;;5034152;28;20495;-65
2021/03/07 13:19:02;;;;;;;17.42;11.63;;;;;;;;;;5034144;28;20046;-65
2021/03/07 13:21:47;;;;;;;14.70;11.02;;;;;;;;;;5034170;28;20046;-65
2021/03/07 13:24:33;;;;;;;16.73;12.80;;;;;;;;;;5013383;28;20420;-65
2021/03/07 13:27:18;;;;;;;18.45;12.00;;;;;;;;;;5013415;28;20042;-65
2021/03/07 13:30:04;;;;;;;16.25;12.63;;;;;;;;;;5014168;28;20054;-64
2021/03/07 13:32:49;;;;;;;17.48;13.18;;;;;;;;;;5018091;28;20053;-65
2021/03/07 13:35:35;;;;;;;20.45;14.35;;;;;;;;;;5033922;28;20049;-64
2021/03/07 13:38:21;;;;;;;17.95;13.55;;;;;;;;;;5033830;28;20415;-64
2021/03/07 13:41:06;;;;;;;17.30;12.90;;;;;;;;;;5018858;28;20132;-64
2021/03/07 13:43:51;;;;;;;22.48;14.75;;;;;;;;;;5024225;28;20253;-64
2021/03/07 13:46:37;;;;;;;19.10;15.10;;;;;;;;;;5014039;28;20042;-64
2021/03/07 13:49:22;;;;;;;17.50;13.40;;;;;;;;;;5013729;28;20074;-64
2021/03/07 13:52:07;;;;;;;17.05;13.13;;;;;;;;;;5013972;28;20046;-64
2021/03/07 13:54:53;;;;;;;18.52;15.60;;;;;;;;;;5028806;28;20054;-64
2021/03/07 13:57:38;;;;;;;23.73;14.13;;;;;;;;;;5033786;28;20084;-65
2021/03/07 14:00:24;;;;;;;20.42;14.73;;;;;;;;;;5033506;28;20042;-64
2021/03/07 14:03:09;;;;;;;23.77;14.88;;;;;;;;;;5033472;28;20498;-65
2021/03/07 14:05:54;;;;;;;21.02;14.88;;;;;;;;;;5013578;28;20125;-65
2021/03/07 14:08:40;;;;;;;20.83;14.23;;;;;;;;;;5013459;28;20108;-65
2021/03/07 14:11:25;;;;;;;22.10;15.02;;;;;;;;;;5012724;28;20121;-64
2021/03/07 14:14:10;;;;;;;25.13;17.15;;;;;;;;;;4999970;28;20403;-64
2021/03/07 14:16:55;;;;;;;24.25;15.60;;;;;;;;;;5013533;28;20069;-64
2021/03/07 14:19:41;;;;;;;21.58;15.57;;;;;;;;;;5014189;28;20499;-64
2021/03/07 14:22:27;;;;;;;26.20;17.10;;;;;;;;;;5013315;28;20049;-64
2021/03/07 14:25:12;;;;;;;24.88;15.63;;;;;;;;;;5014157;28;20504;-64
2021/03/07 14:27:57;;;;;;;27.90;18.23;;;;;;;;;;5013001;28;20120;-65
2021/03/07 14:30:43;;;;;;;30.73;18.73;;;;;;;;;;5013118;28;20057;-64
2021/03/07 14:33:28;;;;;;;29.13;20.23;;;;;;;;;;5014196;28;20403;-64
2021/03/07 14:36:14;;;;;;;31.58;20.85;;;;;;;;;;5012229;28;20045;-64
2021/03/07 14:38:59;;;;;;;31.35;19.27;;;;;;;;;;5012637;28;20045;-63
2021/03/07 14:41:44;;;;;;;31.40;20.40;;;;;;;;;;5013162;28;20065;-63
2021/03/07 14:44:30;;;;;;;35.53;19.13;;;;;;;;;;5023080;28;20034;-64
2021/03/07 14:47:16;;;;;;;30.10;19.88;;;;;;;;;;5032233;28;20053;-64
2021/03/07 14:50:02;;;;;;;30.55;20.98;;;;;;;;;;5032554;28;20496;-64
2021/03/07 14:52:47;;;;;;;31.92;21.65;;;;;;;;;;5032542;28;20041;-64
2021/03/07 14:55:33;;;;;;;31.92;20.73;;;;;;;;;;5030668;28;20049;-64
2021/03/07 14:58:18;;;;;;;31.75;22.10;;;;;;;;;;5032308;28;20466;-63
2021/03/07 15:01:04;;;;;;;31.80;21.27;;;;;;;;;;5032572;28;20045;-63
2021/03/07 15:03:49;;;;;;;29.92;20.63;;;;;;;;;;5032242;28;20077;-64
2021/03/07 15:06:34;;;;;;;32.65;20.63;;;;;;;;;;5012508;28;20416;-63
2021/03/07 15:09:20;;;;;;;32.65;21.23;;;;;;;;;;5012436;28;20054;-63
2021/03/07 15:12:05;;;;;;;26.58;19.67;;;;;;;;;;5012731;28;20053;-64
2021/03/07 15:14:50;;;;;;;31.25;21.85;;;;;;;;;;5016584;28;20496;-63
2021/03/07 15:17:36;;;;;;;27.98;19.75;;;;;;;;;;5031932;28;20042;-62
2021/03/07 15:20:21;;;;;;;33.10;22.00;;;;;;;;;;5032127;28;20041;-64
2021/03/07 15:23:07;;;;;;;32.25;20.80;;;;;;;;;;5032078;28;20065;-62
2021/03/07 15:25:52;;;;;;;31.95;21.08;;;;;;;;;;5021723;28;20415;-63
2021/03/07 15:28:37;;;;;;;36.40;21.75;;;;;;;;;;5012291;28;20050;-63
2021/03/07 15:31:23;;;;;;;35.03;21.90;;;;;;;;;;5012434;28;20050;-64
2021/03/07 15:34:08;;;;;;;35.35;22.48;;;;;;;;;;5012489;28;20060;-64
2021/03/07 15:36:54;;;;;;;36.35;23.13;;;;;;;;;;5027701;28;20049;-64
2021/03/07 15:39:39;;;;;;;33.08;21.85;;;;;;;;;;5031872;28;20053;-64
2021/03/07 15:42:24;;;;;;;36.47;23.73;;;;;;;;;;5016975;28;20043;-64
2021/03/07 15:45:10;;;;;;;32.47;22.33;;;;;;;;;;5031862;28;20049;-64
2021/03/07 15:47:58;;;;;;;33.33;23.88;;;;;;;;;;5012850;28;20057;-64
2021/03/07 15:50:44;;;;;;;33.80;22.70;;;;;;;;;;5012116;28;20041;-64
2021/03/07 15:53:29;;;;;;;30.80;19.75;;;;;;;;;;5012208;28;20042;-64
2021/03/07 15:56:14;;;;;;;40.42;25.05;;;;;;;;;;5016677;28;20041;-64
2021/03/07 15:59:00;;;;;;;32.97;22.20;;;;;;;;;;5034668;28;20041;-64
2021/03/07 16:01:45;;;;;;;37.25;22.42;;;;;;;;;;5034173;28;20407;-63
2021/03/07 16:04:30;;;;;;;31.90;21.83;;;;;;;;;;5035593;28;20053;-64
2021/03/07 16:07:16;;;;;;;33.50;21.92;;;;;;;;;;5034014;28;20053;-62
2021/03/07 16:10:01;;;;;;;33.28;21.90;;;;;;;;;;5035580;28;20042;-63
2021/03/07 16:12:46;;;;;;;32.08;21.05;;;;;;;;;;5016410;28;20045;-63
2021/03/07 16:15:32;;;;;;;32.90;21.95;;;;;;;;;;5015886;28;20046;-64
2021/03/07 16:18:17;;;;;;;37.72;21.23;;;;;;;;;;5028458;28;20475;-64
2021/03/07 16:21:02;;;;;;;28.50;20.92;;;;;;;;;;5035318;28;20049;-64
2021/03/07 16:23:48;;;;;;;34.28;21.10;;;;;;;;;;5035545;28;20389;-64
2021/03/07 16:26:33;;;;;;;29.05;19.75;;;;;;;;;;5035208;28;20041;-64
2021/03/07 16:29:18;;;;;;;32.03;20.67;;;;;;;;;;5015045;28;20045;-64
2021/03/07 16:32:04;;;;;;;28.17;20.13;;;;;;;;;;5015700;28;20050;-64
2021/03/07 16:34:49;;;;;;;28.55;19.38;;;;;;;;;;5015329;28;20050;-64
2021/03/07 16:37:35;;;;;;;30.92;20.92;;;;;;;;;;5018178;28;20041;-64
2021/03/07 16:40:20;;;;;;;32.47;20.05;;;;;;;;;;5035254;28;20049;-64
2021/03/07 16:43:05;;;;;;;33.65;21.55;;;;;;;;;;5035126;28;20491;-63
2021/03/07 16:45:51;;;;;;;30.58;20.30;;;;;;;;;;5034836;28;20116;-63
2021/03/07 16:48:37;;;;;;;33.67;21.65;;;;;;;;;;5025507;28;20042;-63
2021/03/07 16:51:22;;;;;;;27.85;19.10;;;;;;;;;;5015211;28;20117;-63
2021/03/07 16:54:08;;;;;;;38.25;21.02;;;;;;;;;;5015007;28;20038;-64
2021/03/07 16:56:53;;;;;;;29.88;20.33;;;;;;;;;;5015016;28;20045;-63
2021/03/07 16:59:39;;;;;;;32.42;21.02;;;;;;;;;;5028948;28;20049;-62
2021/03/07 17:02:24;;;;;;;31.58;21.80;;;;;;;;;;5019486;28;20175;-63
2021/03/07 17:05:09;;;;;;;36.03;20.95;;;;;;;;;;5034523;28;20045;-63
2021/03/07 17:07:54;;;;;;;32.05;21.33;;;;;;;;;;5034354;28;20404;-63
2021/03/07 17:10:40;;;;;;;32.40;20.80;;;;;;;;;;5032399;28;20077;-64
2021/03/07 17:13:25;;;;;;;35.92;21.92;;;;;;;;;;5014746;28;20408;-64
2021/03/07 17:16:11;;;;;;;34.15;21.38;;;;;;;;;;5014433;28;20070;-64
2021/03/07 17:18:56;;;;;;;33.85;21.92;;;;;;;;;;5014275;28;20289;-64
2021/03/07 17:21:41;;;;;;;36.28;22.63;;;;;;;;;;5021627;28;20120;-64
2021/03/07 17:24:27;;;;;;;34.70;22.90;;;;;;;;;;5034258;28;20053;-64
2021/03/07 17:27:12;;;;;;;40.78;24.77;;;;;;;;;;5034224;28;20045;-64
2021/03/07 17:29:58;;;;;;;36.00;22.75;;;;;;;;;;5033938;28;20038;-64
2021/03/07 17:32:43;;;;;;;36.33;23.90;;;;;;;;;;5021172;28;20050;-64
2021/03/07 17:35:28;;;;;;;38.80;23.45;;;;;;;;;;5014157;28;20471;-64
2021/03/07 17:38:14;;;;;;;37.17;22.05;;;;;;;;;;5013956;28;20088;-64
2021/03/07 17:40:59;;;;;;;39.67;23.27;;;;;;;;;;5014198;28;20121;-63
2021/03/07 17:43:45;;;;;;;41.60;23.55;;;;;;;;;;5032336;28;20152;-64
2021/03/07 17:46:30;;;;;;;34.28;23.38;;;;;;;;;;5033676;28;20042;-64
2021/03/07 17:49:16;;;;;;;35.00;23.27;;;;;;;;;;5033658;28;20095;-64
2021/03/07 17:52:01;;;;;;;35.25;22.30;;;;;;;;;;5032339;28;20069;-63
2021/03/07 17:54:46;;;;;;;33.92;23.25;;;;;;;;;;5013918;28;20050;-62
2021/03/07 17:57:32;;;;;;;38.13;24.42;;;;;;;;;;5013793;28;20046;-63
2021/03/07 18:00:17;;;;;;;34.30;21.27;;;;;;;;;;5013866;28;20049;-62
2021/03/07 18:03:02;;;;;;;36.40;22.60;;;;;;;;;;5020339;28;20465;-62
2021/03/07 18:05:48;;;;;;;34.97;22.67;;;;;;;;;;5033399;28;20120;-65
2021/03/07 18:08:33;;;;;;;37.17;22.23;;;;;;;;;;5033236;28;20447;-65
2021/03/07 18:11:19;;;;;;;38.90;23.05;;;;;;;;;;5033271;28;20041;-64
2021/03/07 18:14:04;;;;;;;35.60;22.52;;;;;;;;;;5005650;28;20042;-65
2021/03/07 18:16:50;;;;;;;37.08;22.25;;;;;;;;;;5073254;22;20053;-64
2021/03/07 18:19:36;;;;;;;34.67;23.73;;;;;;;;;;5052497;28;20055;-62
2021/03/07 18:22:21;;;;;;;32.40;22.33;;;;;;;;;;5041264;28;20041;-63
2021/03/07 18:25:07;;;;;;;36.72;21.65;;;;;;;;;;5041425;28;20049;-63
2021/03/07 18:27:52;;;;;;;37.08;23.88;;;;;;;;;;5042821;28;20045;-62
2021/03/07 18:30:38;;;;;;;39.78;22.98;;;;;;;;;;5044906;28;20071;-63
2021/03/07 18:33:23;;;;;;;33.90;22.13;;;;;;;;;;5042082;28;20053;-62
2021/03/07 18:36:08;;;;;;;35.72;21.45;;;;;;;;;;5038238;28;20045;-63
2021/03/07 18:38:53;;;;;;;32.00;22.08;;;;;;;;;;5038864;28;20053;-63
2021/03/07 18:41:39;;;;;;;39.17;23.05;;;;;;;;;;5036828;28;20046;-62
2021/03/07 18:44:25;;;;;;;34.50;22.67;;;;;;;;;;5050065;28;20041;-63
2021/03/07 18:47:10;;;;;;;36.95;23.15;;;;;;;;;;5041464;28;20050;-63
2021/03/07 18:49:56;;;;;;;37.67;22.05;;;;;;;;;;5035378;28;20462;-63
2021/03/07 18:52:42;;;;;;;33.95;22.05;;;;;;;;;;5049709;28;20049;-63
2021/03/07 18:55:33;;;;;;;33.60;21.75;;;;;;;;;;5049873;28;20049;-62
2021/03/07 18:58:18;;;;;;;33.65;22.42;;;;;;;;;;5047509;28;20499;-63
2021/03/07 19:01:06;;;;;;;34.45;21.17;;;;;;;;;;5038907;28;20037;-63
2021/03/07 19:03:53;;;;;;;36.17;22.02;;;;;;;;;;5048496;28;20049;-63
2021/03/07 19:06:38;;;;;;;34.50;21.63;;;;;;;;;;5050666;28;20049;-63
2021/03/07 19:09:26;;;;;;;38.03;20.88;;;;;;;;;;5049471;28;20048;-63
2021/03/07 19:12:24;;;;;;;34.78;22.63;;;;;;;;;;5049228;28;20143;-63
2021/03/07 19:15:21;;;;;;;34.70;22.33;;;;;;;;;;5029551;28;20045;-62
2021/03/07 19:18:06;;;;;;;33.92;21.70;;;;;;;;;;5028076;28;20057;-63
2021/03/07 19:20:51;;;;;;;37.65;20.08;;;;;;;;;;5028951;28;20046;-64
2021/03/07 19:23:37;;;;;;;34.60;20.02;;;;;;;;;;5036749;28;20056;-63
2021/03/07 19:26:23;;;;;;;37.65;21.02;;;;;;;;;;5049108;28;20045;-64
2021/03/07 19:29:10;;;;;;;36.50;19.75;;;;;;;;;;5048219;28;20498;-63
2021/03/07 19:31:56;;;;;;;33.03;18.58;;;;;;;;;;5048156;28;20045;-64
2021/03/07 19:34:42;;;;;;;34.45;19.17;;;;;;;;;;5048787;28;20495;-63
2021/03/07 19:37:27;;;;;;;31.42;20.15;;;;;;;;;;5077619;28;20144;-64
2021/03/07 19:40:22;;;;;;;32.05;20.65;;;;;;;;;;5049403;28;20053;-64
2021/03/07 19:43:14;;;;;;;30.02;20.63;;;;;;;;;;5048456;28;20069;-63
2021/03/07 19:46:19;;;;;;;29.88;19.40;;;;;;;;;;5044189;28;20045;-63
2021/03/07 19:49:14;;;;;;;34.50;19.20;;;;;;;;;;5049201;28;20096;-64
2021/03/07 19:52:03;;;;;;;36.08;20.10;;;;;;;;;;5049454;28;20053;-63
2021/03/07 19:54:48;;;;;;;29.83;19.00;;;;;;;;;;5049905;28;20411;-63
2021/03/07 19:57:33;;;;;;;32.22;21.33;;;;;;;;;;5049788;28;20406;-64
2021/03/07 20:00:19;;;;;;;38.65;23.98;;;;;;;;;;5047531;28;20513;-63
2021/03/07 20:03:11;;;;;;;28.25;19.25;;;;;;;;;;5047888;28;20037;-62
2021/03/07 20:06:27;;;;;;;33.47;20.45;;;;;;;;;;5047603;28;20041;-63
2021/03/07 20:09:13;;;;;;;32.45;19.40;;;;;;;;;;5044685;28;20079;-63
2021/03/07 20:11:59;;;;;;;30.73;20.20;;;;;;;;;;5028584;28;20068;-63
2021/03/07 20:14:45;;;;;;;32.28;20.38;;;;;;;;;;5049713;28;20084;-63
2021/03/07 20:17:31;;;;;;;33.92;20.67;;;;;;;;;;5045324;28;20049;-64
2021/03/07 20:20:17;;;;;;;35.00;19.65;;;;;;;;;;5044762;28;20449;-63
2021/03/07 20:23:03;;;;;;;29.88;18.73;;;;;;;;;;5045875;28;20499;-63
2021/03/07 20:25:49;;;;;;;34.20;19.95;;;;;;;;;;5046950;28;20045;-65
2021/03/07 20:28:35;;;;;;;32.08;19.88;;;;;;;;;;5044236;28;20507;-64
2021/03/07 20:31:21;;;;;;;40.08;19.30;;;;;;;;;;5044894;28;20139;-63
2021/03/07 20:34:10;;;;;;;36.50;18.65;;;;;;;;;;5043590;28;20464;-66
2021/03/07 20:36:55;;;;;;;29.52;18.05;;;;;;;;;;5045911;28;20376;-66
2021/03/07 20:39:54;;;;;;;33.67;20.13;;;;;;;;;;5058259;28;20052;-65
2021/03/07 20:42:43;;;;;;;33.40;20.08;;;;;;;;;;5047028;28;20052;-64
2021/03/07 20:45:32;;;;;;;31.08;19.17;;;;;;;;;;5051040;28;20041;-63
2021/03/07 20:48:38;;;;;;;30.90;18.88;;;;;;;;;;5046628;28;20114;-63
2021/03/07 20:51:27;;;;;;;33.58;20.02;;;;;;;;;;5039244;28;20503;-63
2021/03/07 20:54:20;;;;;;;35.08;20.88;;;;;;;;;;5052079;28;20099;-63
2021/03/07 20:57:08;;;;;;;34.42;20.83;;;;;;;;;;5052108;28;20045;-63
2021/03/07 20:59:55;;;;;;;35.53;19.83;;;;;;;;;;5050809;28;20052;-63
2021/03/07 21:02:41;;;;;;;32.17;19.83;;;;;;;;;;5053087;28;20049;-62
2021/03/07 21:05:27;;;;;;;34.70;21.05;;;;;;;;;;5051668;28;20064;-63
2021/03/07 21:08:12;;;;;;;32.38;20.25;;;;;;;;;;5050531;28;20446;-63
2021/03/07 21:10:57;;;;;;;29.70;19.50;;;;;;;;;;5051363;28;20055;-62
2021/03/07 21:13:43;;;;;;;41.65;21.23;;;;;;;;;;5049353;28;20134;-63
2021/03/07 21:16:29;;;;;;;34.42;20.00;;;;;;;;;;5044698;28;20049;-63
2021/03/07 21:19:14;;;;;;;33.63;20.58;;;;;;;;;;5051527;28;20491;-63
2021/03/07 21:22:00;;;;;;;29.08;19.48;;;;;;;;;;5050393;28;20049;-63
2021/03/07 21:24:45;;;;;;;30.80;20.35;;;;;;;;;;5052428;28;20393;-63
2021/03/07 21:27:30;;;;;;;42.95;21.83;;;;;;;;;;5052581;28;20050;-63
2021/03/07 21:30:16;;;;;;;36.70;19.92;;;;;;;;;;5052158;28;20076;-62
2021/03/07 21:33:01;;;;;;;31.58;20.27;;;;;;;;;;5051610;28;20052;-63
2021/03/07 21:35:47;;;;;;;34.05;20.95;;;;;;;;;;5031860;28;20057;-63
2021/03/07 21:38:32;;;;;;;33.08;20.92;;;;;;;;;;5039847;28;20102;-62
2021/03/07 21:41:17;;;;;;;32.72;20.70;;;;;;;;;;5052470;28;20041;-63
2021/03/07 21:44:03;;;;;;;36.53;21.20;;;;;;;;;;5033703;28;20538;-62
2021/03/07 21:46:48;;;;;;;32.08;19.63;;;;;;;;;;5052203;28;20041;-63
2021/03/07 21:49:33;;;;;;;40.22;21.73;;;;;;;;;;5051689;28;20051;-63
2021/03/07 21:52:18;;;;;;;33.38;22.63;;;;;;;;;;5049091;28;20491;-63
2021/03/07 21:55:05;;;;;;;33.72;20.60;;;;;;;;;;5049969;28;20538;-63
2021/03/07 21:57:50;;;;;;;31.30;21.85;;;;;;;;;;5051498;28;20060;-62
2021/03/07 22:00:35;;;;;;;37.92;21.20;;;;;;;;;;5038077;28;20045;-63
2021/03/07 22:03:21;;;;;;;36.80;20.75;;;;;;;;;;5051931;28;20483;-62
2021/03/07 22:06:06;;;;;;;34.45;21.58;;;;;;;;;;5049629;28;20076;-63
2021/03/07 22:08:52;;;;;;;39.22;21.92;;;;;;;;;;5052984;28;20502;-63
2021/03/07 22:11:37;;;;;;;41.33;23.42;;;;;;;;;;5053350;28;20049;-63
2021/03/07 22:14:33;;;;;;;35.97;20.90;;;;;;;;;;5080667;28;20049;-62
2021/03/07 22:17:18;;;;;;;32.22;20.05;;;;;;;;;;5053185;28;20048;-63
2021/03/07 22:20:05;;;;;;;36.45;21.05;;;;;;;;;;5052881;28;20045;-63
2021/03/07 22:22:50;;;;;;;35.42;20.23;;;;;;;;;;5061188;28;20141;-63
2021/03/07 22:25:35;;;;;;;38.58;21.42;;;;;;;;;;5050561;28;20127;-62
2021/03/07 22:28:20;;;;;;;34.63;21.42;;;;;;;;;;5052152;28;20495;-63
2021/03/07 22:31:06;;;;;;;36.13;23.13;;;;;;;;;;5054933;28;20052;-63
2021/03/07 22:33:51;;;;;;;32.95;21.27;;;;;;;;;;5054103;28;20053;-62